Portada
METAR-TAF:

METAR-TAF

Aeropuertos :

Aeropuerto Internacional de Basora

Basora, Iraq

latitud: 30-32-56N, longitud: 47-39-45E, altitud: 1 m

Observación

El informe se hizo hace 1 hora y 9 minutos, a las 11:00 UTC
Viento 18 kt del oeste
Temperatura 23°C
Humedad 50%
Presión 1012 hPa
Visibilidad: 8000 m
Escasas nubes a una altura de 3500 ft
Nubes dispersas a una altura de 10000 ft

METAR: ORMM 201100Z 27018KT 8000 FEW035 SCT100 23/12 Q1012 NOSIG

Hora: 15:09 (12:09 UTC)

Pronóstico

El informe se hizo hace 2 horas y 9 minutos, a las 10:00 UTC
Pronóstico válido del 20 a las 12 UTC al 21 a las 12 UTC
Viento 15 kt del oeste con ráfagas de 25 kt
Visibilidad: 8000 m
Temporalmente
del 20 a las 12 UTC al 20 a las 18 UTC
Visibilidad: 5000 m
Ventisca alta de polvo

TAF: ORMM 201000Z 2012/2112 27015G25KT 8000 NSC TEMPO 2012/2018 5000 BLDU

Observaciones y pronósticos meteorológicos de más de 4000 aeropuertos (mensajes METAR y TAF).

Los puntos amarillos y rojos representan las estaciones disponibles.

Ponga el ratón en el punto deseado para ver el nombre de la estación.

Haga clic para ver las observaciones y los pronósticos meteorológicos.

Para cambiar el mapa : haga clic en los botones verdes con una cruz de color negro para hacer un zoom, en el botón verde con un guión para alejar o en las flechas verdes para mapas adyacentes.


METAR-TAF: